Time;durP1;ratioP1;P1;durP2;ratioP2;P2;SDS_P1;SDS_P2;PMS_P1;PMS_P2;Temp;Humidity;BMP_temperature;BMP_pressure;BME280_temperature;BME280_humidity;BME280_pressure;Samples;Min_cycle;Max_cycle;Signal;HPM_P1;HPM_P2
2022/05/03 00:00:18;;;;;;;5.25;2.78;;;8.90;99.90;;;;;;4979635;28;20037;-69
2022/05/03 00:03:08;;;;;;;6.85;2.75;;;8.90;99.90;;;;;;4977491;28;20039;-66
2022/05/03 00:06:21;;;;;;;5.63;2.83;;;8.90;99.90;;;;;;4977773;28;20082;-69
2022/05/03 00:09:01;;;;;;;5.78;2.90;;;8.90;99.90;;;;;;4945590;28;20031;-69
2022/05/03 00:11:31;;;;;;;6.35;2.88;;;8.80;99.90;;;;;;4979531;28;20031;-69
2022/05/03 00:14:04;;;;;;;9.32;3.80;;;8.80;99.90;;;;;;4980156;28;20101;-69
2022/05/03 00:16:32;;;;;;;8.32;3.28;;;8.80;99.90;;;;;;4979603;28;20055;-68
2022/05/03 00:19:00;;;;;;;8.57;2.95;;;8.80;99.90;;;;;;4980486;28;20095;-68
2022/05/03 00:21:27;;;;;;;5.55;3.05;;;8.80;99.90;;;;;;4978915;28;20041;-69
2022/05/03 00:23:52;;;;;;;5.90;3.33;;;8.80;99.90;;;;;;4978138;28;20086;-68
2022/05/03 00:26:19;;;;;;;6.53;3.00;;;8.80;99.90;;;;;;4976079;28;20054;-67
2022/05/03 00:28:45;;;;;;;9.30;3.42;;;8.80;99.90;;;;;;4980970;28;20038;-69
2022/05/03 00:31:12;;;;;;;10.43;3.20;;;8.70;99.90;;;;;;4978118;28;20049;-69
2022/05/03 00:33:39;;;;;;;6.28;3.25;;;8.70;99.90;;;;;;4980631;28;20030;-69
2022/05/03 00:36:05;;;;;;;8.05;3.30;;;8.70;99.90;;;;;;4972750;28;20045;-68
2022/05/03 00:38:34;;;;;;;6.43;2.90;;;8.60;99.90;;;;;;4979828;28;20038;-69
2022/05/03 00:41:02;;;;;;;6.72;3.17;;;8.60;99.90;;;;;;4978379;28;20049;-66
2022/05/03 00:43:36;;;;;;;7.90;3.60;;;8.60;99.90;;;;;;4973805;28;20554;-69
2022/05/03 00:46:08;;;;;;;6.47;3.25;;;8.50;99.90;;;;;;4979979;28;20053;-65
2022/05/03 00:48:43;;;;;;;6.97;3.88;;;8.50;99.90;;;;;;4973019;28;20039;-67
2022/05/03 00:51:16;;;;;;;5.97;3.15;;;8.50;99.90;;;;;;4972788;28;20529;-69
2022/05/03 00:54:35;;;;;;;7.32;3.13;;;8.40;99.90;;;;;;4980147;28;20663;-69
2022/05/03 00:57:33;;;;;;;10.00;3.35;;;8.40;99.90;;;;;;4920310;29;20504;-65
2022/05/03 01:00:07;;;;;;;10.00;3.67;;;8.40;99.90;;;;;;4919658;29;20047;-67
2022/05/03 01:03:01;;;;;;;8.60;3.28;;;8.40;99.90;;;;;;4961671;28;20027;-69
2022/05/03 01:05:43;;;;;;;7.55;3.40;;;8.30;99.90;;;;;;4979377;28;20444;-69
2022/05/03 01:08:20;;;;;;;11.32;4.03;;;8.30;99.90;;;;;;4973252;28;20037;-68
2022/05/03 01:11:05;;;;;;;9.13;4.40;;;8.20;99.90;;;;;;4979816;28;20031;-69
2022/05/03 01:13:35;;;;;;;8.70;3.88;;;8.30;99.90;;;;;;4978713;28;20122;-69
2022/05/03 01:16:21;;;;;;;8.60;3.88;;;8.20;99.90;;;;;;4977888;28;20023;-67
2022/05/03 01:18:52;;;;;;;7.78;4.22;;;8.20;99.90;;;;;;4979301;28;20038;-69
2022/05/03 01:21:41;;;;;;;9.75;4.50;;;8.20;99.90;;;;;;4978261;28;20113;-68
2022/05/03 01:24:47;;;;;;;9.40;4.53;;;8.20;99.90;;;;;;4973467;28;20499;-69
2022/05/03 01:27:27;;;;;;;10.88;5.13;;;8.10;99.90;;;;;;4974361;28;20039;-69
2022/05/03 01:29:52;;;;;;;10.55;5.25;;;8.10;99.90;;;;;;4977244;28;20109;-66
2022/05/03 01:32:21;;;;;;;12.20;4.95;;;8.10;99.90;;;;;;4977923;28;20103;-66
2022/05/03 01:34:47;;;;;;;14.25;4.93;;;8.10;99.90;;;;;;4978540;28;20022;-68
2022/05/03 01:37:25;;;;;;;11.02;4.65;;;8.00;99.90;;;;;;4979091;28;20690;-68
2022/05/03 01:40:10;;;;;;;10.15;5.22;;;8.00;99.90;;;;;;4979280;28;20123;-69
2022/05/03 01:42:48;;;;;;;10.90;5.20;;;7.90;99.90;;;;;;4974135;28;20371;-68
2022/05/03 01:45:23;;;;;;;11.65;5.60;;;7.90;99.90;;;;;;4976534;28;20134;-69
2022/05/03 01:48:16;;;;;;;10.73;5.28;;;7.90;99.90;;;;;;4978999;28;20041;-69
2022/05/03 01:51:05;;;;;;;12.40;5.65;;;7.80;99.90;;;;;;4973812;28;20042;-68
2022/05/03 01:53:42;;;;;;;8.07;4.78;;;7.80;99.90;;;;;;4972770;28;20120;-69
2022/05/03 01:56:30;;;;;;;10.85;5.70;;;7.80;99.90;;;;;;4979398;28;20038;-68
2022/05/03 01:59:04;;;;;;;11.80;4.88;;;7.80;99.90;;;;;;4979659;28;20046;-69
2022/05/03 02:01:33;;;;;;;9.38;5.13;;;7.80;99.90;;;;;;4972767;28;20122;-69
2022/05/03 02:04:37;;;;;;;14.18;5.88;;;7.70;99.90;;;;;;4979085;28;20030;-67
2022/05/03 02:07:12;;;;;;;15.43;5.97;;;7.70;99.90;;;;;;4978294;28;20495;-69
2022/05/03 02:10:25;;;;;;;13.13;6.53;;;7.80;99.90;;;;;;4974183;28;20093;-68
2022/05/03 02:12:53;;;;;;;14.98;7.82;;;7.80;99.90;;;;;;4962327;28;20154;-69
2022/05/03 02:15:42;;;;;;;16.40;6.85;;;7.80;99.90;;;;;;4978571;28;20065;-68
2022/05/03 02:18:39;;;;;;;16.20;6.97;;;7.80;99.90;;;;;;4974577;28;20487;-70
2022/05/03 02:21:13;;;;;;;11.98;6.22;;;7.70;99.90;;;;;;4973096;28;20031;-68
2022/05/03 02:23:48;;;;;;;15.75;7.63;;;7.70;99.90;;;;;;4977269;28;20045;-69
2022/05/03 02:26:36;;;;;;;13.52;7.18;;;7.70;99.90;;;;;;4978089;28;20034;-69
2022/05/03 02:29:15;;;;;;;17.70;7.35;;;7.60;99.90;;;;;;4973443;28;20050;-69
2022/05/03 02:32:00;;;;;;;14.07;6.53;;;7.60;99.90;;;;;;4974998;28;20027;-68
2022/05/03 02:35:01;;;;;;;17.45;8.25;;;7.60;99.90;;;;;;4974516;28;20055;-67
2022/05/03 02:37:47;;;;;;;13.82;7.40;;;7.50;99.90;;;;;;4928673;28;20431;-68
2022/05/03 02:40:17;;;;;;;17.63;8.55;;;7.60;99.90;;;;;;4975856;28;20037;-69
2022/05/03 02:42:44;;;;;;;15.48;7.53;;;7.50;99.90;;;;;;4971581;28;20825;-68
2022/05/03 02:45:11;;;;;;;19.92;9.25;;;7.50;99.90;;;;;;4980779;28;20642;-68
2022/05/03 02:47:48;;;;;;;16.67;7.78;;;7.50;99.90;;;;;;4983424;28;20088;-68
2022/05/03 02:50:28;;;;;;;15.77;8.20;;;7.50;99.90;;;;;;4980160;28;20027;-68
2022/05/03 02:53:07;;;;;;;17.58;8.38;;;7.50;99.90;;;;;;4980029;28;20038;-73
2022/05/03 02:55:53;;;;;;;20.50;9.52;;;7.50;99.90;;;;;;4982440;28;20030;-68
2022/05/03 02:58:37;;;;;;;19.13;9.10;;;7.50;99.90;;;;;;4979450;28;20514;-68
2022/05/03 03:04:01;;;;;;;22.38;10.05;;;7.50;99.90;;;;;;4991710;28;20041;-67
2022/05/03 03:06:34;;;;;;;21.67;10.07;;;7.40;99.90;;;;;;4979658;28;20454;-70
2022/05/03 03:09:01;;;;;;;22.38;10.07;;;7.40;99.90;;;;;;4979570;28;20487;-67
2022/05/03 03:12:24;;;;;;;22.08;9.57;;;7.40;99.90;;;;;;4978516;28;20046;-69
2022/05/03 03:14:58;;;;;;;18.73;9.57;;;7.30;99.90;;;;;;4915515;29;20191;-67
2022/05/03 03:17:28;;;;;;;18.00;9.10;;;7.30;99.90;;;;;;4931668;29;20047;-68
2022/05/03 03:20:03;;;;;;;18.48;8.95;;;7.30;99.90;;;;;;4970842;28;20077;-68
2022/05/03 03:22:34;;;;;;;19.60;9.35;;;7.30;99.90;;;;;;4975416;28;20034;-67
2022/05/03 03:25:01;;;;;;;19.60;9.15;;;7.20;99.90;;;;;;4984087;28;20126;-68
2022/05/03 03:27:31;;;;;;;19.30;9.02;;;7.20;99.90;;;;;;4991420;28;20042;-69
2022/05/03 03:29:58;;;;;;;22.30;9.50;;;7.20;99.90;;;;;;4960578;28;20117;-69
2022/05/03 03:32:25;;;;;;;21.83;9.82;;;7.20;99.90;;;;;;4991263;28;20038;-73
2022/05/03 03:34:54;;;;;;;19.00;9.73;;;7.20;99.90;;;;;;4983903;28;20050;-68
2022/05/03 03:37:23;;;;;;;19.80;10.65;;;7.20;99.90;;;;;;4985761;28;20034;-67
2022/05/03 03:39:49;;;;;;;24.63;11.05;;;7.20;99.90;;;;;;4977009;28;20169;-68
2022/05/03 03:42:14;;;;;;;21.63;10.50;;;7.10;99.90;;;;;;4979140;28;20121;-73
2022/05/03 03:44:40;;;;;;;20.80;9.63;;;7.10;99.90;;;;;;4976027;28;20057;-68
2022/05/03 03:47:06;;;;;;;24.17;10.32;;;7.10;99.90;;;;;;4985016;28;20078;-68
2022/05/03 03:49:34;;;;;;;21.08;11.23;;;7.10;99.90;;;;;;4981864;28;20031;-68
2022/05/03 03:52:00;;;;;;;21.15;10.50;;;7.10;99.90;;;;;;4976287;28;20042;-71
2022/05/03 03:54:26;;;;;;;28.17;11.43;;;7.10;99.90;;;;;;4973873;28;20186;-71
2022/05/03 03:56:54;;;;;;;26.23;10.88;;;7.10;99.90;;;;;;4988447;28;20031;-68
2022/05/03 03:59:20;;;;;;;22.08;11.55;;;7.10;99.90;;;;;;4983666;28;20039;-67
2022/05/03 04:01:48;;;;;;;27.17;11.75;;;7.10;99.90;;;;;;4992659;28;20053;-68
2022/05/03 04:04:16;;;;;;;22.25;10.77;;;7.10;99.90;;;;;;4981147;28;20534;-67
2022/05/03 04:06:41;;;;;;;27.98;11.23;;;7.10;99.90;;;;;;4986508;28;20057;-67
2022/05/03 04:09:08;;;;;;;21.77;10.52;;;7.10;99.90;;;;;;4987767;28;20185;-68
2022/05/03 04:11:44;;;;;;;24.85;11.13;;;7.10;99.90;;;;;;4982791;28;20042;-67
2022/05/03 04:14:14;;;;;;;24.25;11.27;;;7.10;99.90;;;;;;4980715;28;20046;-67
2022/05/03 04:16:41;;;;;;;27.08;10.43;;;7.10;99.90;;;;;;4981423;28;20046;-68
2022/05/03 04:19:08;;;;;;;21.42;10.55;;;7.10;99.90;;;;;;4975734;28;20042;-68
2022/05/03 04:21:34;;;;;;;25.50;11.10;;;7.10;99.90;;;;;;4975571;28;20127;-71
2022/05/03 04:24:00;;;;;;;23.48;11.43;;;7.20;99.90;;;;;;4974936;28;20038;-69
2022/05/03 04:26:27;;;;;;;24.85;11.05;;;7.20;99.90;;;;;;4979630;28;20080;-70
2022/05/03 04:29:00;;;;;;;20.23;10.93;;;7.20;99.90;;;;;;4979466;28;20230;-67
2022/05/03 04:31:26;;;;;;;23.95;10.27;;;7.20;99.90;;;;;;4979741;28;20051;-67
2022/05/03 04:33:52;;;;;;;20.88;10.35;;;7.20;99.90;;;;;;4974409;28;20035;-68
2022/05/03 04:36:18;;;;;;;20.55;10.25;;;7.20;99.90;;;;;;4973006;28;20085;-70
2022/05/03 04:38:44;;;;;;;25.13;11.30;;;7.20;99.90;;;;;;4986815;28;20046;-68
2022/05/03 04:41:09;;;;;;;24.58;10.40;;;7.30;99.90;;;;;;4986110;28;20034;-67
2022/05/03 04:43:35;;;;;;;24.52;11.15;;;7.30;99.90;;;;;;4977796;28;20039;-67
2022/05/03 04:46:00;;;;;;;24.05;11.90;;;7.30;99.90;;;;;;4982084;28;20569;-68
2022/05/03 04:48:26;;;;;;;31.02;11.23;;;7.40;99.90;;;;;;4977445;28;20893;-67
2022/05/03 04:50:52;;;;;;;27.45;12.02;;;7.40;99.90;;;;;;4977855;28;20047;-68
2022/05/03 04:53:17;;;;;;;22.77;11.10;;;7.50;99.90;;;;;;4972684;28;20031;-70
2022/05/03 04:55:43;;;;;;;24.17;11.50;;;7.50;99.90;;;;;;4980230;28;20045;-68
2022/05/03 04:58:10;;;;;;;26.73;11.98;;;7.50;99.90;;;;;;4976126;28;20042;-68
2022/05/03 05:00:35;;;;;;;25.15;11.80;;;7.60;99.90;;;;;;4986481;28;20054;-67
2022/05/03 05:03:01;;;;;;;24.20;12.02;;;7.70;99.90;;;;;;4977516;28;20054;-67
2022/05/03 05:05:27;;;;;;;33.85;13.63;;;7.70;99.90;;;;;;4981183;28;20086;-67
2022/05/03 05:07:53;;;;;;;24.42;12.23;;;7.80;99.90;;;;;;4976444;28;20046;-69
2022/05/03 05:10:24;;;;;;;23.50;11.18;;;7.90;99.90;;;;;;4977718;28;20045;-70
2022/05/03 05:12:51;;;;;;;26.52;12.35;;;7.90;99.90;;;;;;4969859;28;20044;-67
2022/05/03 05:15:17;;;;;;;29.75;10.88;;;8.00;99.90;;;;;;4977571;28;20038;-67
2022/05/03 05:17:42;;;;;;;27.23;12.80;;;8.00;99.90;;;;;;4979229;28;20135;-67
2022/05/03 05:20:08;;;;;;;29.83;12.27;;;8.10;99.90;;;;;;4982276;28;20054;-70
2022/05/03 05:22:34;;;;;;;29.77;12.00;;;8.10;99.90;;;;;;4971473;28;20034;-67
2022/05/03 05:24:59;;;;;;;24.30;12.18;;;8.20;99.90;;;;;;4976579;28;20058;-70
2022/05/03 05:27:25;;;;;;;31.73;11.93;;;8.30;99.90;;;;;;4982229;28;20146;-69
2022/05/03 05:29:51;;;;;;;30.60;12.38;;;8.40;99.90;;;;;;4984360;28;20042;-69
2022/05/03 05:32:16;;;;;;;24.20;11.05;;;8.40;99.90;;;;;;4977364;28;20031;-69
2022/05/03 05:34:42;;;;;;;23.73;10.82;;;8.50;99.90;;;;;;4981368;28;20072;-70
2022/05/03 05:37:07;;;;;;;28.15;11.55;;;8.60;99.90;;;;;;4975293;28;20042;-67
2022/05/03 05:39:33;;;;;;;25.67;11.52;;;8.70;99.90;;;;;;4977319;28;20041;-68
2022/05/03 05:42:01;;;;;;;28.02;13.30;;;8.80;99.90;;;;;;4979194;28;20557;-68
2022/05/03 05:44:27;;;;;;;25.88;12.20;;;8.90;99.90;;;;;;4978553;28;20093;-68
2022/05/03 05:46:53;;;;;;;21.48;9.88;;;9.20;99.90;;;;;;4975892;28;20038;-68
2022/05/03 05:49:19;;;;;;;21.38;10.18;;;10.20;99.90;;;;;;4978598;28;20384;-69
2022/05/03 05:51:47;;;;;;;17.35;8.80;;;11.60;99.90;;;;;;4975429;28;20545;-69
2022/05/03 05:54:13;;;;;;;18.40;9.48;;;13.10;99.90;;;;;;4978786;28;20145;-69
2022/05/03 05:56:42;;;;;;;15.13;8.52;;;14.40;99.90;;;;;;4978229;28;20698;-70
2022/05/03 05:59:08;;;;;;;16.48;7.38;;;15.70;99.90;;;;;;4977308;28;20049;-71
2022/05/03 06:01:41;;;;;;;10.27;6.68;;;16.50;99.90;;;;;;4978515;28;20050;-70
2022/05/03 06:04:07;;;;;;;14.07;8.35;;;16.90;99.90;;;;;;4977433;28;20503;-71
2022/05/03 06:06:35;;;;;;;11.52;7.10;;;17.30;99.90;;;;;;4979013;28;20034;-69
2022/05/03 06:09:04;;;;;;;11.70;7.43;;;18.10;99.90;;;;;;4977871;28;20090;-70
2022/05/03 06:11:29;;;;;;;12.73;7.18;;;18.30;99.90;;;;;;4977775;28;20042;-71
2022/05/03 06:13:55;;;;;;;11.32;6.95;;;19.00;99.90;;;;;;4981639;28;20130;-70
2022/05/03 06:16:21;;;;;;;15.20;8.70;;;18.70;98.70;;;;;;4979916;28;20034;-72
2022/05/03 06:18:47;;;;;;;14.40;7.72;;;18.30;98.10;;;;;;4976366;28;20046;-69
2022/05/03 06:21:13;;;;;;;12.63;8.32;;;18.00;99.30;;;;;;4974857;28;20129;-72
2022/05/03 06:23:39;;;;;;;12.20;7.93;;;17.40;99.90;;;;;;4975956;28;20056;-69
2022/05/03 06:26:05;;;;;;;12.77;8.23;;;16.90;99.90;;;;;;4974032;28;20511;-70
2022/05/03 06:28:34;;;;;;;14.73;7.45;;;16.20;99.90;;;;;;4977445;28;20066;-70
2022/05/03 06:31:00;;;;;;;14.02;8.63;;;15.90;99.90;;;;;;4975905;28;20033;-72
2022/05/03 06:33:26;;;;;;;17.23;8.30;;;15.50;99.90;;;;;;4982133;28;20104;-72
2022/05/03 06:35:52;;;;;;;16.63;8.55;;;15.30;99.90;;;;;;4976523;28;20073;-71
2022/05/03 06:38:18;;;;;;;18.02;8.88;;;15.20;99.90;;;;;;4979938;28;20041;-69
2022/05/03 06:40:43;;;;;;;13.93;7.93;;;14.90;99.90;;;;;;4976618;28;20030;-69
2022/05/03 06:43:09;;;;;;;18.17;8.90;;;14.80;99.90;;;;;;4982596;28;20397;-69
2022/05/03 06:45:35;;;;;;;20.70;9.02;;;14.70;99.90;;;;;;4976486;28;20027;-71
2022/05/03 06:48:01;;;;;;;17.80;7.93;;;14.40;99.90;;;;;;4978498;28;20133;-72
2022/05/03 06:50:29;;;;;;;14.48;8.63;;;14.20;99.90;;;;;;4974207;28;20035;-69
2022/05/03 06:52:55;;;;;;;19.75;9.75;;;14.00;99.90;;;;;;4974561;28;20591;-69
2022/05/03 06:55:20;;;;;;;19.30;9.95;;;13.80;99.90;;;;;;4976856;28;20038;-70
2022/05/03 06:57:48;;;;;;;20.10;9.90;;;13.80;99.90;;;;;;4978797;28;20049;-70
2022/05/03 07:00:14;;;;;;;17.58;9.27;;;13.80;99.90;;;;;;4960809;28;20027;-69
2022/05/03 07:02:41;;;;;;;17.10;8.00;;;13.70;99.90;;;;;;4972863;28;20558;-74
2022/05/03 07:05:08;;;;;;;20.27;9.07;;;13.70;99.90;;;;;;4973584;28;20394;-69
2022/05/03 07:07:33;;;;;;;20.88;8.93;;;13.70;99.90;;;;;;4976947;28;20090;-69
2022/05/03 07:10:02;;;;;;;19.90;9.57;;;13.70;99.90;;;;;;4969864;28;20031;-70
2022/05/03 07:12:29;;;;;;;17.20;9.10;;;13.70;99.90;;;;;;4977123;28;20035;-70
2022/05/03 07:15:04;;;;;;;19.30;10.07;;;13.80;99.90;;;;;;4973045;28;20126;-69
2022/05/03 07:22:58;;;;;;;19.42;9.85;;;13.80;99.90;;;;;;4971285;28;20111;-71
2022/05/03 07:25:24;;;;;;;17.95;9.38;;;14.00;99.90;;;;;;4975419;28;20529;-70
2022/05/03 07:27:51;;;;;;;17.17;8.88;;;14.10;99.90;;;;;;4972235;28;20441;-69
2022/05/03 07:30:18;;;;;;;14.32;8.15;;;14.00;99.90;;;;;;4970892;28;20050;-69
2022/05/03 07:32:44;;;;;;;16.25;8.30;;;14.30;99.90;;;;;;4985298;28;20030;-70
2022/05/03 07:35:11;;;;;;;14.88;8.65;;;14.40;99.90;;;;;;4971683;28;20035;-70
2022/05/03 07:37:38;;;;;;;17.30;8.50;;;14.60;99.90;;;;;;4973994;28;20061;-70
2022/05/03 07:40:05;;;;;;;16.63;8.63;;;15.00;99.90;;;;;;4974660;28;20031;-70
2022/05/03 07:42:31;;;;;;;20.63;9.38;;;15.30;99.90;;;;;;4977144;28;20031;-69
2022/05/03 07:44:57;;;;;;;16.55;8.77;;;15.40;99.90;;;;;;4979134;28;20442;-73
2022/05/03 07:47:22;;;;;;;16.08;8.63;;;15.40;99.90;;;;;;4975577;28;20117;-69
2022/05/03 07:49:48;;;;;;;18.50;8.50;;;15.30;99.90;;;;;;4978528;28;20526;-69
2022/05/03 07:52:13;;;;;;;16.48;9.00;;;15.50;99.90;;;;;;4981826;28;20467;-72
2022/05/03 07:54:43;;;;;;;16.48;9.02;;;15.70;99.90;;;;;;4981236;28;20039;-71
2022/05/03 07:57:09;;;;;;;16.02;9.05;;;15.70;99.90;;;;;;4974656;28;20034;-71
2022/05/03 07:59:35;;;;;;;16.63;8.18;;;15.90;99.90;;;;;;4980886;28;20057;-69
2022/05/03 08:02:01;;;;;;;13.48;7.32;;;16.10;99.90;;;;;;4982044;28;20422;-70
2022/05/03 08:04:27;;;;;;;13.45;7.68;;;16.40;99.90;;;;;;4973925;28;20035;-70
2022/05/03 08:06:52;;;;;;;16.50;9.18;;;16.40;99.90;;;;;;4978427;28;20042;-70
2022/05/03 08:09:18;;;;;;;15.43;7.50;;;16.50;99.90;;;;;;4978001;28;20042;-70
2022/05/03 08:11:44;;;;;;;16.42;8.05;;;16.20;99.90;;;;;;4974258;28;20126;-71
2022/05/03 08:14:10;;;;;;;12.10;7.05;;;16.00;99.90;;;;;;4981052;28;20065;-74
2022/05/03 08:16:35;;;;;;;15.32;7.85;;;15.80;99.90;;;;;;4980567;28;20062;-74
2022/05/03 08:19:01;;;;;;;18.88;8.38;;;15.90;99.90;;;;;;4981598;28;20077;-70
2022/05/03 08:21:27;;;;;;;15.95;8.35;;;16.20;99.90;;;;;;4981211;28;20042;-71
2022/05/03 08:23:54;;;;;;;13.52;7.68;;;16.40;99.90;;;;;;4980032;28;20027;-71
2022/05/03 08:26:20;;;;;;;14.10;7.60;;;16.50;99.90;;;;;;4972468;28;20034;-71
2022/05/03 08:28:46;;;;;;;20.42;8.23;;;16.80;99.90;;;;;;4974070;28;20499;-70
2022/05/03 08:31:11;;;;;;;13.07;7.45;;;17.00;99.90;;;;;;4975922;28;20041;-73
2022/05/03 08:33:37;;;;;;;13.43;7.15;;;17.30;99.90;;;;;;4966486;28;20045;-69
2022/05/03 08:36:04;;;;;;;13.85;6.45;;;17.60;99.90;;;;;;4976612;28;20066;-72
2022/05/03 08:43:59;;;;;;;15.40;7.80;;;18.40;99.90;;;;;;4972102;28;20045;-71
2022/05/03 08:46:25;;;;;;;13.40;7.30;;;18.00;99.90;;;;;;4962781;28;20047;-71
2022/05/03 08:48:55;;;;;;;15.43;7.03;;;17.90;99.90;;;;;;4965616;28;20446;-72
2022/05/03 08:51:23;;;;;;;15.15;7.82;;;17.30;99.90;;;;;;4969520;28;20035;-72
2022/05/03 08:53:49;;;;;;;15.10;7.82;;;16.80;99.90;;;;;;4970416;28;20042;-72
2022/05/03 08:56:19;;;;;;;17.52;8.30;;;16.50;99.90;;;;;;4964992;28;20121;-70
2022/05/03 08:58:45;;;;;;;14.88;7.70;;;16.40;99.90;;;;;;4967908;28;20035;-72
2022/05/03 09:01:11;;;;;;;14.80;8.25;;;16.30;99.90;;;;;;4973364;28;20643;-72
2022/05/03 09:03:37;;;;;;;23.25;9.90;;;16.00;99.90;;;;;;4971536;28;20054;-71
2022/05/03 09:06:04;;;;;;;17.85;9.18;;;15.80;99.90;;;;;;4970594;28;20515;-71
2022/05/03 09:08:31;;;;;;;19.95;10.20;;;15.80;99.90;;;;;;4965039;28;20544;-72
2022/05/03 09:10:57;;;;;;;22.45;9.85;;;15.80;99.90;;;;;;4973215;28;20193;-72
2022/05/03 09:13:24;;;;;;;20.38;10.38;;;15.80;99.90;;;;;;4966624;28;20547;-71
2022/05/03 09:15:56;;;;;;;20.65;9.90;;;15.80;99.90;;;;;;4972410;28;20039;-71
2022/05/03 09:18:28;;;;;;;19.60;10.52;;;15.70;99.90;;;;;;4964671;28;20787;-71
2022/05/03 09:23:50;;;;;;;20.30;9.25;;;16.10;99.90;;;;;;4970228;28;20049;-72
2022/05/03 09:26:19;;;;;;;22.50;10.45;;;16.20;99.90;;;;;;4964537;28;20046;-72
2022/05/03 09:28:54;;;;;;;17.85;8.45;;;16.30;99.90;;;;;;4975358;28;20027;-72
2022/05/03 09:31:30;;;;;;;17.60;8.98;;;16.40;99.90;;;;;;4973332;28;20420;-71
2022/05/03 09:33:57;;;;;;;17.55;9.13;;;16.70;99.90;;;;;;4965778;28;20053;-69
2022/05/03 09:36:23;;;;;;;20.52;9.27;;;16.80;99.90;;;;;;4970866;28;20058;-72
2022/05/03 09:38:51;;;;;;;15.82;8.77;;;16.80;99.90;;;;;;4971438;28;20074;-72
2022/05/03 09:41:17;;;;;;;18.23;8.32;;;17.10;99.90;;;;;;4968930;28;20494;-69
2022/05/03 09:44:06;;;;;;;20.08;8.52;;;17.20;99.90;;;;;;4966865;28;20035;-72
2022/05/03 09:46:52;;;;;;;17.00;8.77;;;17.20;99.90;;;;;;4966059;28;20117;-72
2022/05/03 09:49:20;;;;;;;18.40;9.27;;;17.00;99.90;;;;;;4971091;28;20069;-70
2022/05/03 09:51:46;;;;;;;19.52;10.10;;;16.80;99.90;;;;;;4966786;28;20100;-71
2022/05/03 09:54:12;;;;;;;21.05;10.80;;;16.70;99.90;;;;;;4970174;28;20557;-72
2022/05/03 09:56:40;;;;;;;19.45;10.02;;;16.70;99.90;;;;;;4969950;28;20031;-72
2022/05/03 09:59:09;;;;;;;19.63;9.95;;;16.80;99.90;;;;;;4971528;28;20054;-71
2022/05/03 10:01:36;;;;;;;23.95;11.98;;;17.10;99.90;;;;;;4968680;28;20406;-71
2022/05/03 10:04:05;;;;;;;21.95;10.18;;;17.40;99.90;;;;;;4970347;28;20105;-72
2022/05/03 10:06:32;;;;;;;20.27;10.10;;;17.70;99.90;;;;;;4965783;28;20031;-72
2022/05/03 10:08:58;;;;;;;18.98;8.82;;;17.70;99.90;;;;;;4973437;28;20031;-71
2022/05/03 10:11:26;;;;;;;18.45;9.15;;;17.60;99.90;;;;;;4971218;28;20193;-72
2022/05/03 10:13:55;;;;;;;19.73;9.68;;;17.50;99.90;;;;;;4967522;28;20113;-71
2022/05/03 10:22:01;;;;;;;20.23;9.57;;;17.60;99.90;;;;;;4969981;28;20105;-71
2022/05/03 10:24:28;;;;;;;18.25;9.55;;;17.60;99.90;;;;;;4967990;28;20031;-71
2022/05/03 10:27:06;;;;;;;17.63;9.23;;;17.60;99.90;;;;;;4970338;28;20035;-72
2022/05/03 10:29:35;;;;;;;18.00;9.45;;;17.60;99.90;;;;;;4968475;28;20121;-72
2022/05/03 10:32:07;;;;;;;19.40;9.57;;;17.60;99.90;;;;;;4970947;28;20067;-71
2022/05/03 10:34:59;;;;;;;18.88;9.07;;;17.80;99.90;;;;;;4968969;28;20445;-72
2022/05/03 10:37:33;;;;;;;19.05;9.52;;;18.10;99.90;;;;;;4968661;28;20517;-72
2022/05/03 10:40:01;;;;;;;19.70;10.15;;;17.80;99.90;;;;;;4972021;28;20050;-72
2022/05/03 10:42:30;;;;;;;19.58;9.60;;;17.70;99.90;;;;;;4964757;28;20069;-71
2022/05/03 10:44:57;;;;;;;16.95;8.90;;;17.60;99.90;;;;;;4970074;28;20058;-69
2022/05/03 10:47:47;;;;;;;19.52;10.07;;;17.60;99.90;;;;;;4969093;28;20023;-72
2022/05/03 10:50:13;;;;;;;21.65;10.25;;;17.60;99.90;;;;;;4969276;28;20394;-71
2022/05/03 10:52:42;;;;;;;22.25;10.70;;;17.70;99.90;;;;;;4966234;28;20034;-71
2022/05/03 10:55:09;;;;;;;20.63;10.02;;;17.70;99.90;;;;;;4965955;28;20530;-72
2022/05/03 10:58:12;;;;;;;20.42;10.10;;;17.60;99.90;;;;;;4971755;28;20027;-72
2022/05/03 11:01:00;;;;;;;19.48;10.00;;;17.70;99.90;;;;;;4965758;28;20057;-71
2022/05/03 11:03:26;;;;;;;18.35;8.68;;;17.50;99.90;;;;;;4964538;28;20109;-69
2022/05/03 11:06:19;;;;;;;19.23;9.82;;;17.40;99.90;;;;;;4973514;28;20046;-72
2022/05/03 11:09:08;;;;;;;22.20;10.57;;;17.30;99.90;;;;;;4969122;28;20041;-69
2022/05/03 11:11:37;;;;;;;25.67;11.63;;;17.30;99.90;;;;;;4974707;28;20034;-71
2022/05/03 11:14:04;;;;;;;23.60;10.57;;;17.00;99.90;;;;;;4971366;28;20141;-72
2022/05/03 11:16:34;;;;;;;23.73;11.48;;;16.80;99.90;;;;;;4967260;28;20073;-72
2022/05/03 11:19:15;;;;;;;24.92;11.25;;;16.70;99.90;;;;;;4977388;28;20038;-71
2022/05/03 11:21:41;;;;;;;;;;;16.40;99.90;;;;;;4974262;28;20058;-71
2022/05/03 11:24:20;;;;;;;22.00;9.80;;;16.30;99.90;;;;;;4972625;28;19953;-71
2022/05/03 11:26:47;;;;;;;19.60;9.70;;;16.20;99.90;;;;;;4967361;28;20030;-72
2022/05/03 11:29:14;;;;;;;21.40;9.90;;;16.00;99.90;;;;;;4975185;28;20030;-70
2022/05/03 11:31:50;;;;;;;20.63;10.05;;;15.90;99.90;;;;;;4971388;28;20054;-71
2022/05/03 11:34:17;;;;;;;19.90;8.95;;;16.00;99.90;;;;;;4964824;28;20521;-68
2022/05/03 11:36:44;;;;;;;18.63;7.93;;;15.90;99.90;;;;;;4970506;28;20035;-70
2022/05/03 11:39:10;;;;;;;18.40;7.50;;;15.90;99.90;;;;;;4965414;28;20093;-72
2022/05/03 11:41:37;;;;;;;15.40;6.93;;;16.00;99.90;;;;;;4969314;28;20562;-71
2022/05/03 11:44:03;;;;;;;18.70;7.75;;;16.10;99.90;;;;;;4969794;28;20062;-72
2022/05/03 11:46:29;;;;;;;13.60;5.35;;;16.10;99.90;;;;;;4975270;28;20034;-71
2022/05/03 11:49:01;;;;;;;12.80;5.70;;;16.10;99.90;;;;;;4970837;28;20517;-72
2022/05/03 11:57:12;;;;;;;8.63;3.80;;;16.20;99.90;;;;;;4970956;28;20101;-71
2022/05/03 11:59:40;;;;;;;13.75;4.95;;;16.10;99.90;;;;;;4968473;28;20042;-72
2022/05/03 12:02:30;;;;;;;12.95;4.53;;;16.10;99.90;;;;;;4973515;28;20085;-72
2022/05/03 12:05:08;;;;;;;10.10;4.00;;;16.10;99.90;;;;;;4972841;28;20038;-69
2022/05/03 12:07:35;;;;;;;8.88;3.80;;;16.10;99.90;;;;;;4967630;28;20062;-72
2022/05/03 12:10:01;;;;;;;8.88;3.83;;;16.20;99.90;;;;;;4973689;28;20035;-70
2022/05/03 12:12:45;;;;;;;9.65;4.32;;;16.30;99.90;;;;;;4969675;28;20106;-71
2022/05/03 12:15:22;;;;;;;7.10;3.78;;;16.30;99.90;;;;;;4968605;28;20586;-71
2022/05/03 12:18:13;;;;;;;13.45;4.13;;;16.30;99.90;;;;;;4971982;28;20034;-70
2022/05/03 12:20:43;;;;;;;13.07;4.38;;;16.30;99.90;;;;;;4971631;28;20811;-71
2022/05/03 12:23:13;;;;;;;8.15;3.85;;;16.20;99.90;;;;;;4969679;28;20034;-71
2022/05/03 12:25:41;;;;;;;12.65;3.92;;;16.10;99.90;;;;;;4972258;28;20038;-70
2022/05/03 12:28:07;;;;;;;9.88;4.03;;;15.90;99.90;;;;;;4971768;28;20034;-70
2022/05/03 12:30:34;;;;;;;10.13;4.55;;;15.90;99.90;;;;;;4972101;28;20038;-70
2022/05/03 12:33:06;;;;;;;10.20;4.32;;;16.00;99.90;;;;;;4966953;28;20035;-71
2022/05/03 12:35:35;;;;;;;7.30;4.30;;;16.00;99.90;;;;;;4969264;28;20117;-71
2022/05/03 12:38:10;;;;;;;12.98;4.60;;;16.10;99.90;;;;;;4971501;28;20887;-70
2022/05/03 12:41:05;;;;;;;11.30;4.35;;;16.20;99.90;;;;;;4969660;28;20109;-67
2022/05/03 12:43:32;;;;;;;8.98;4.22;;;16.20;99.90;;;;;;4953717;28;20034;-71
2022/05/03 12:46:03;;;;;;;10.93;4.30;;;16.30;99.90;;;;;;4979402;28;20037;-71
2022/05/03 12:48:29;;;;;;;;;;;16.30;99.90;;;;;;4975482;28;20442;-71
2022/05/03 12:50:56;;;;;;;12.32;4.40;;;16.20;99.90;;;;;;4977215;28;19920;-71
2022/05/03 12:53:30;;;;;;;9.13;4.10;;;16.40;99.90;;;;;;4979268;28;20125;-71
2022/05/03 12:58:21;;;;;;;8.52;3.20;;;16.40;99.90;;;;;;4977027;28;20062;-69
2022/05/03 12:58:43;;;;;;;12.93;3.58;;;16.30;99.90;;;;;;4979161;28;20038;-70
2022/05/03 13:01:11;;;;;;;13.63;4.50;;;16.30;99.90;;;;;;4977654;28;20042;-71
2022/05/03 13:03:37;;;;;;;8.55;3.78;;;16.40;99.90;;;;;;4979812;28;20034;-69
2022/05/03 13:06:03;;;;;;;11.27;4.13;;;16.30;99.90;;;;;;4976476;28;20039;-69
2022/05/03 13:08:29;;;;;;;8.80;3.78;;;16.40;99.90;;;;;;4977134;28;20033;-69
2022/05/03 13:10:54;;;;;;;8.77;3.70;;;16.60;99.90;;;;;;4977892;28;20113;-71
2022/05/03 13:13:20;;;;;;;11.52;3.92;;;16.50;99.90;;;;;;4978473;28;20400;-70
2022/05/03 13:15:45;;;;;;;8.70;3.67;;;16.50;99.90;;;;;;4978881;28;20129;-70
2022/05/03 13:18:11;;;;;;;14.23;4.97;;;16.40;99.90;;;;;;4976786;28;20030;-72
2022/05/03 13:20:38;;;;;;;12.52;4.10;;;16.20;99.90;;;;;;4978420;28;20103;-72
2022/05/03 13:23:04;;;;;;;12.43;3.85;;;16.10;99.90;;;;;;4976861;28;20368;-70
2022/05/03 13:25:30;;;;;;;9.50;3.85;;;16.20;99.90;;;;;;4976421;28;20045;-69
2022/05/03 13:27:56;;;;;;;10.13;3.45;;;16.10;99.90;;;;;;4977139;28;20466;-71